Time;durP1;ratioP1;P1;durP2;ratioP2;P2;SDS_P1;SDS_P2;PMS_P1;PMS_P2;Temp;Humidity;BMP_temperature;BMP_pressure;BME280_temperature;BME280_humidity;BME280_pressure;Samples;Min_cycle;Max_cycle;Signal;HPM_P1;HPM_P2
2022/05/24 00:00:43;;;;;;;2.27;2.13;;;18.00;54.90;;;;;;5234557;28;20437;-51
2022/05/24 00:03:14;;;;;;;6.03;1.90;;;17.90;54.90;;;;;;5241526;28;21530;-50
2022/05/24 00:05:44;;;;;;;1.73;1.63;;;18.00;55.10;;;;;;5241929;28;20473;-51
2022/05/24 00:08:18;;;;;;;5.50;2.67;;;18.00;55.00;;;;;;5239866;28;20185;-51
2022/05/24 00:10:49;;;;;;;1.83;1.70;;;18.00;55.20;;;;;;5241163;28;20175;-49
2022/05/24 00:13:20;;;;;;;2.60;1.60;;;18.00;55.30;;;;;;5243474;28;20795;-49
2022/05/24 00:15:51;;;;;;;3.53;2.17;;;18.00;55.40;;;;;;5241172;28;20309;-49
2022/05/24 00:18:25;;;;;;;2.00;1.90;;;18.00;55.50;;;;;;5241735;28;20722;-51
2022/05/24 00:21:01;;;;;;;2.73;2.03;;;18.00;55.50;;;;;;5241876;28;20838;-51
2022/05/24 00:23:33;;;;;;;2.13;1.97;;;18.00;55.60;;;;;;5235415;28;20566;-51
2022/05/24 00:26:09;;;;;;;2.40;2.30;;;18.00;55.60;;;;;;5239741;28;20467;-50
2022/05/24 00:28:39;;;;;;;2.13;1.93;;;17.90;55.70;;;;;;5236546;28;20450;-49
2022/05/24 00:31:13;;;;;;;4.23;2.13;;;18.00;55.90;;;;;;5236030;28;20441;-50
2022/05/24 00:33:43;;;;;;;2.40;2.30;;;17.90;56.00;;;;;;5233778;28;20182;-50
2022/05/24 00:36:16;;;;;;;2.10;1.90;;;17.90;56.00;;;;;;5241327;28;20484;-51
2022/05/24 00:38:46;;;;;;;1.93;1.70;;;17.90;56.30;;;;;;5238260;28;20187;-51
2022/05/24 00:41:30;;;;;;;2.17;2.07;;;17.80;56.40;;;;;;5237803;28;20467;-51
2022/05/24 00:44:14;;;;;;;3.90;1.87;;;17.70;56.70;;;;;;5235119;28;20582;-51
2022/05/24 00:46:51;;;;;;;2.60;2.00;;;17.70;56.90;;;;;;5238354;28;20803;-50
2022/05/24 00:49:40;;;;;;;2.30;2.20;;;17.80;56.80;;;;;;5237559;28;20432;-50
2022/05/24 00:52:18;;;;;;;1.87;1.77;;;17.80;56.80;;;;;;5237683;28;20983;-51
2022/05/24 00:54:48;;;;;;;7.77;2.30;;;17.80;57.00;;;;;;5237168;28;20979;-51
2022/05/24 00:57:35;;;;;;;4.57;1.90;;;17.80;57.10;;;;;;5243023;28;20455;-51
2022/05/24 01:00:15;;;;;;;1.87;1.87;;;17.80;57.10;;;;;;5232307;28;20248;-51
2022/05/24 01:02:46;;;;;;;2.40;2.30;;;17.80;57.20;;;;;;5233083;28;20436;-51
2022/05/24 01:05:24;;;;;;;2.00;1.87;;;17.90;57.40;;;;;;5231564;28;20491;-50
2022/05/24 01:07:55;;;;;;;5.33;2.10;;;17.80;57.50;;;;;;5239426;28;20609;-51
2022/05/24 01:10:33;;;;;;;3.23;2.50;;;17.80;57.60;;;;;;5236547;28;20421;-52
2022/05/24 01:13:14;;;;;;;2.40;2.20;;;17.80;57.80;;;;;;5227147;28;20178;-50
2022/05/24 01:15:46;;;;;;;3.57;2.33;;;17.90;57.90;;;;;;5240538;28;20448;-51
2022/05/24 01:18:17;;;;;;;4.70;1.90;;;17.80;58.10;;;;;;5225562;28;20432;-51
2022/05/24 01:20:58;;;;;;;3.40;2.60;;;17.80;58.20;;;;;;5233071;28;20443;-50
2022/05/24 01:23:57;;;;;;;3.70;2.27;;;17.80;58.20;;;;;;5233835;28;20456;-51
2022/05/24 01:26:54;;;;;;;3.23;1.60;;;17.80;58.40;;;;;;5251176;28;20449;-52
2022/05/24 01:29:26;;;;;;;6.00;2.60;;;17.90;58.40;;;;;;5240215;28;20496;-52
2022/05/24 01:37:35;;;;;;;2.27;2.17;;;17.80;59.00;;;;;;5236348;28;20503;-52
2022/05/24 01:40:06;;;;;;;3.20;2.70;;;17.80;59.00;;;;;;5232763;28;20438;-51
2022/05/24 01:42:37;;;;;;;3.33;1.97;;;17.80;59.20;;;;;;5231431;28;20716;-51
2022/05/24 01:45:15;;;;;;;2.43;2.20;;;17.80;59.50;;;;;;5241402;28;20360;-50
2022/05/24 01:47:50;;;;;;;2.33;2.17;;;17.80;59.70;;;;;;5239248;28;20942;-50
2022/05/24 01:50:21;;;;;;;2.23;2.03;;;17.80;59.90;;;;;;5233520;28;21266;-52
2022/05/24 01:52:55;;;;;;;3.63;2.40;;;17.80;59.90;;;;;;5235775;28;20435;-49
2022/05/24 01:55:32;;;;;;;1.70;1.70;;;17.80;60.10;;;;;;5237708;28;20463;-51
2022/05/24 01:58:07;;;;;;;4.10;1.90;;;17.80;60.20;;;;;;5229819;28;20481;-50
2022/05/24 02:00:40;;;;;;;3.50;2.40;;;17.80;60.30;;;;;;5236210;28;20448;-50
2022/05/24 02:03:11;;;;;;;4.83;2.47;;;17.70;61.00;;;;;;5238079;28;20942;-51
2022/05/24 02:05:42;;;;;;;6.30;2.30;;;17.80;61.50;;;;;;5235829;28;20468;-50
2022/05/24 02:08:13;;;;;;;2.40;2.23;;;17.80;62.30;;;;;;5233980;28;20183;-51
2022/05/24 02:11:04;;;;;;;2.60;1.80;;;17.80;62.90;;;;;;5234608;28;20443;-50
2022/05/24 02:13:39;;;;;;;3.13;2.53;;;17.70;65.30;;;;;;5239668;28;20524;-51
2022/05/24 02:16:14;;;;;;;4.37;2.90;;;17.60;67.80;;;;;;5234568;28;20517;-52
2022/05/24 02:18:48;;;;;;;2.50;2.10;;;17.60;69.50;;;;;;5238590;28;20440;-52
2022/05/24 02:21:18;;;;;;;2.67;2.47;;;17.50;71.60;;;;;;5225127;28;20436;-51
2022/05/24 02:23:51;;;;;;;8.07;2.43;;;17.50;74.10;;;;;;5251677;28;20494;-50
2022/05/24 02:26:23;;;;;;;5.77;2.57;;;17.40;76.20;;;;;;5233237;28;20242;-50
2022/05/24 02:28:54;;;;;;;3.67;2.50;;;17.40;80.20;;;;;;5240323;28;20543;-51
2022/05/24 02:31:26;;;;;;;2.87;2.13;;;17.30;81.50;;;;;;5237464;28;20917;-51
2022/05/24 02:33:57;;;;;;;2.57;2.37;;;17.30;84.20;;;;;;5238278;28;20464;-50
2022/05/24 02:36:27;;;;;;;2.30;2.30;;;17.30;86.10;;;;;;5223698;28;20506;-51
2022/05/24 02:38:58;;;;;;;3.30;2.33;;;17.20;90.00;;;;;;5232265;28;20190;-51
2022/05/24 02:41:29;;;;;;;2.70;2.53;;;17.20;90.60;;;;;;5235723;28;20182;-52
2022/05/24 02:44:04;;;;;;;4.97;2.30;;;17.30;91.50;;;;;;5236321;28;20189;-50
2022/05/24 02:46:36;;;;;;;2.50;2.33;;;17.20;93.00;;;;;;5231848;28;20205;-52
2022/05/24 02:49:07;;;;;;;2.47;2.27;;;17.20;93.80;;;;;;5233095;28;20523;-56
2022/05/24 02:51:39;;;;;;;5.73;3.13;;;17.20;94.40;;;;;;5239135;28;20428;-51
2022/05/24 02:54:10;;;;;;;9.53;2.97;;;17.20;95.50;;;;;;5239156;28;20654;-51
2022/05/24 02:56:44;;;;;;;5.37;2.97;;;17.20;96.50;;;;;;5240999;28;20529;-52
2022/05/24 02:59:14;;;;;;;3.00;2.43;;;17.20;97.00;;;;;;5225810;28;20203;-52
2022/05/24 03:01:45;;;;;;;7.53;2.33;;;17.10;99.40;;;;;;5239583;28;20510;-52
2022/05/24 03:04:15;;;;;;;2.93;2.43;;;17.10;99.80;;;;;;5241460;28;20174;-51
2022/05/24 03:09:35;;;;;;;4.97;2.73;;;17.00;99.90;;;;;;5241056;28;20193;-51
2022/05/24 03:14:57;;;;;;;3.10;2.90;;;16.80;99.90;;;;;;5240958;28;20217;-50
2022/05/24 03:17:27;;;;;;;4.87;2.90;;;16.80;99.90;;;;;;5240441;28;20751;-51
2022/05/24 03:19:58;;;;;;;3.33;3.00;;;16.70;99.90;;;;;;5241909;28;20189;-51
2022/05/24 03:22:29;;;;;;;4.37;2.80;;;16.60;99.90;;;;;;5238563;28;20190;-49
2022/05/24 03:24:59;;;;;;;4.73;2.97;;;16.50;99.90;;;;;;5226085;28;20315;-52
2022/05/24 03:27:30;;;;;;;3.93;2.67;;;16.50;99.90;;;;;;5259928;28;20178;-51
2022/05/24 03:30:00;;;;;;;3.50;3.30;;;16.50;99.90;;;;;;5247991;28;20181;-50
2022/05/24 03:32:31;;;;;;;3.20;2.97;;;16.50;99.90;;;;;;5245206;28;20530;-52
2022/05/24 03:35:04;;;;;;;3.20;2.90;;;16.50;99.90;;;;;;5245621;28;20209;-51
2022/05/24 03:37:35;;;;;;;6.63;3.30;;;16.50;99.90;;;;;;5239085;28;20183;-50
2022/05/24 03:40:07;;;;;;;2.90;2.80;;;16.50;99.90;;;;;;5225400;28;20439;-50
2022/05/24 03:42:38;;;;;;;11.33;3.37;;;16.50;99.90;;;;;;5252607;28;20515;-52
2022/05/24 03:45:10;;;;;;;3.03;2.80;;;16.60;99.90;;;;;;5241217;28;20472;-52
2022/05/24 03:47:40;;;;;;;4.33;2.80;;;16.60;99.90;;;;;;5241665;28;20439;-51
2022/05/24 03:50:12;;;;;;;3.80;2.60;;;16.60;99.90;;;;;;5226493;28;20432;-51
2022/05/24 03:52:42;;;;;;;5.60;3.00;;;16.70;99.90;;;;;;5242172;28;20177;-51
2022/05/24 03:55:13;;;;;;;3.00;2.70;;;16.70;99.90;;;;;;5242565;28;20461;-51
2022/05/24 03:58:02;;;;;;;3.43;3.30;;;16.70;99.90;;;;;;5241159;28;20183;-52
2022/05/24 04:00:39;;;;;;;12.23;2.83;;;16.80;99.90;;;;;;5237799;28;20178;-52
2022/05/24 04:03:10;;;;;;;4.40;3.27;;;16.80;99.90;;;;;;5242191;28;20445;-51
2022/05/24 04:05:41;;;;;;;2.73;2.53;;;16.90;99.90;;;;;;5239066;28;21179;-52
2022/05/24 04:08:12;;;;;;;2.50;2.40;;;16.80;99.90;;;;;;5243624;28;20198;-50
2022/05/24 04:10:43;;;;;;;3.23;2.80;;;16.80;99.90;;;;;;5235101;28;20459;-51
2022/05/24 04:13:14;;;;;;;3.17;2.83;;;16.90;99.90;;;;;;5232384;28;20460;-52
2022/05/24 04:15:44;;;;;;;3.63;3.33;;;16.80;99.90;;;;;;5234660;28;21022;-52
2022/05/24 04:18:15;;;;;;;4.93;4.13;;;16.30;99.90;;;;;;5241642;28;20269;-50
2022/05/24 04:20:45;;;;;;;16.43;4.30;;;15.90;99.90;;;;;;5234661;28;20259;-52
2022/05/24 04:23:17;;;;;;;3.97;3.70;;;15.60;99.90;;;;;;5239686;28;20186;-51
2022/05/24 04:25:48;;;;;;;18.77;5.07;;;15.30;99.90;;;;;;5228231;28;20225;-50
2022/05/24 04:28:19;;;;;;;9.40;4.93;;;15.20;99.90;;;;;;5241557;28;20432;-52
2022/05/24 04:30:51;;;;;;;5.57;5.17;;;15.10;99.90;;;;;;5225188;28;20432;-51
2022/05/24 04:33:22;;;;;;;5.17;4.77;;;15.10;99.90;;;;;;5234974;28;20459;-52
2022/05/24 04:35:52;;;;;;;9.27;4.90;;;15.00;99.90;;;;;;5243901;28;20464;-50
2022/05/24 04:38:24;;;;;;;4.13;3.83;;;14.90;99.90;;;;;;5236924;28;20269;-52
2022/05/24 04:43:43;;;;;;;5.33;5.00;;;15.10;99.90;;;;;;5231641;28;20429;-50
2022/05/24 04:46:14;;;;;;;12.03;4.90;;;15.10;99.90;;;;;;5237574;28;20468;-51
2022/05/24 04:48:44;;;;;;;6.40;5.80;;;15.30;99.90;;;;;;5231669;28;20252;-51
2022/05/24 04:51:15;;;;;;;6.50;5.93;;;15.40;99.90;;;;;;5236758;28;20232;-49
2022/05/24 04:53:46;;;;;;;7.20;5.33;;;15.50;99.90;;;;;;5229520;28;20176;-50
2022/05/24 04:56:16;;;;;;;6.93;6.07;;;15.50;99.90;;;;;;5251703;28;20233;-50
2022/05/24 04:58:47;;;;;;;8.07;6.07;;;15.30;99.90;;;;;;5235647;28;20269;-51
2022/05/24 05:01:17;;;;;;;6.70;6.00;;;15.30;99.90;;;;;;5237458;28;20237;-51
2022/05/24 05:03:47;;;;;;;6.97;6.47;;;15.30;99.90;;;;;;5222698;28;20213;-52
2022/05/24 05:06:18;;;;;;;8.97;7.60;;;15.50;99.90;;;;;;5235205;28;20206;-50
2022/05/24 05:08:49;;;;;;;8.90;8.00;;;15.60;99.90;;;;;;5242758;28;20565;-50
2022/05/24 05:11:20;;;;;;;12.40;9.13;;;15.60;99.90;;;;;;5233120;28;20542;-50
2022/05/24 05:13:51;;;;;;;9.97;8.27;;;15.50;99.90;;;;;;5239667;28;20177;-49
2022/05/24 05:16:22;;;;;;;8.43;7.43;;;15.60;99.90;;;;;;5242848;28;20452;-50
2022/05/24 05:18:52;;;;;;;8.60;7.83;;;15.70;99.90;;;;;;5225950;28;20572;-51
2022/05/24 05:21:23;;;;;;;8.03;7.23;;;15.70;99.90;;;;;;5240384;28;20262;-51
2022/05/24 05:23:53;;;;;;;9.87;8.50;;;15.80;99.90;;;;;;5239243;28;20166;-50
2022/05/24 05:26:24;;;;;;;11.30;7.83;;;15.80;99.90;;;;;;5242662;28;20301;-51
2022/05/24 05:28:54;;;;;;;9.10;8.20;;;15.80;99.90;;;;;;5242470;28;20190;-50
2022/05/24 05:31:28;;;;;;;10.50;7.10;;;15.70;99.90;;;;;;5240891;28;20281;-50
2022/05/24 05:34:00;;;;;;;8.90;8.17;;;15.70;99.90;;;;;;5244782;28;20179;-50
2022/05/24 05:36:32;;;;;;;10.70;9.07;;;15.70;99.90;;;;;;5235556;22;20571;-47
2022/05/24 05:39:03;;;;;;;10.40;7.77;;;15.70;99.90;;;;;;5222801;28;21028;-46
2022/05/24 05:41:37;;;;;;;20.90;15.27;;;15.70;99.90;;;;;;5224996;28;20529;-48
2022/05/24 05:44:07;;;;;;;11.00;8.30;;;15.70;99.90;;;;;;5225677;28;20647;-47
2022/05/24 05:46:38;;;;;;;9.60;8.70;;;15.70;99.90;;;;;;5200064;28;20492;-47
2022/05/24 05:49:09;;;;;;;10.03;8.17;;;15.80;99.90;;;;;;5184604;28;20180;-48
2022/05/24 05:51:40;;;;;;;15.40;9.40;;;15.70;99.90;;;;;;5209040;28;20172;-46
2022/05/24 05:54:10;;;;;;;11.67;8.47;;;15.70;99.90;;;;;;5183501;28;20435;-47
2022/05/24 05:56:41;;;;;;;9.37;8.47;;;15.70;99.90;;;;;;5202958;28;20218;-47
2022/05/24 05:59:12;;;;;;;11.73;8.50;;;15.70;99.90;;;;;;5199255;28;20629;-48
2022/05/24 06:01:42;;;;;;;7.07;6.37;;;15.70;99.90;;;;;;5193964;28;20294;-48
2022/05/24 06:04:13;;;;;;;7.40;6.80;;;15.70;99.90;;;;;;5196602;28;20232;-48
2022/05/24 06:06:47;;;;;;;9.60;8.60;;;15.70;99.90;;;;;;5201072;28;20450;-46
2022/05/24 06:09:17;;;;;;;7.33;6.73;;;15.70;99.90;;;;;;5203467;28;20215;-47
2022/05/24 06:11:48;;;;;;;9.90;7.93;;;15.80;99.90;;;;;;5194891;28;20481;-47
2022/05/24 06:14:18;;;;;;;10.20;7.77;;;15.90;99.90;;;;;;5206252;28;20183;-47
2022/05/24 06:16:49;;;;;;;8.67;7.23;;;16.00;99.90;;;;;;5200738;28;20176;-46
2022/05/24 06:19:19;;;;;;;10.17;8.57;;;16.30;99.90;;;;;;5205030;28;20172;-47
2022/05/24 06:21:50;;;;;;;7.40;6.70;;;16.70;99.90;;;;;;5197022;28;20186;-48
2022/05/24 06:24:20;;;;;;;5.93;5.43;;;17.80;99.90;;;;;;5203678;28;20545;-48
2022/05/24 06:26:51;;;;;;;8.70;5.93;;;19.00;99.90;;;;;;5203272;28;20193;-47
2022/05/24 06:29:23;;;;;;;6.83;5.53;;;19.60;99.90;;;;;;5200502;28;20188;-48
2022/05/24 06:31:53;;;;;;;5.70;5.30;;;20.20;99.90;;;;;;5201162;28;20450;-51
2022/05/24 06:34:24;;;;;;;5.63;4.63;;;21.10;99.90;;;;;;5204632;28;20438;-47
2022/05/24 06:36:54;;;;;;;6.57;4.60;;;21.20;99.90;;;;;;5196236;28;20203;-47
2022/05/24 06:39:27;;;;;;;5.43;5.00;;;20.60;99.90;;;;;;5196531;28;20271;-47
2022/05/24 06:41:57;;;;;;;3.93;3.63;;;20.00;99.90;;;;;;5197668;28;20187;-46
2022/05/24 06:44:28;;;;;;;7.37;5.20;;;19.50;99.90;;;;;;5201456;28;20806;-47
2022/05/24 06:46:58;;;;;;;5.20;4.80;;;19.10;99.90;;;;;;5203237;28;20385;-47
2022/05/24 06:49:29;;;;;;;4.67;3.70;;;18.80;99.90;;;;;;5204085;28;20186;-48
2022/05/24 06:51:59;;;;;;;4.37;3.97;;;18.70;99.90;;;;;;5203706;28;20313;-47
2022/05/24 06:54:30;;;;;;;6.20;4.80;;;18.80;99.90;;;;;;5205953;28;20632;-46
2022/05/24 06:57:00;;;;;;;8.17;4.90;;;18.70;99.90;;;;;;5200428;28;20187;-47
2022/05/24 07:02:27;;;;;;;4.20;3.90;;;18.70;99.90;;;;;;5196203;28;20234;-48
2022/05/24 07:05:03;;;;;;;9.80;4.70;;;18.90;99.90;;;;;;5201035;28;20529;-49
2022/05/24 07:07:36;;;;;;;5.03;4.57;;;19.20;99.90;;;;;;5206177;28;20442;-47
2022/05/24 07:10:09;;;;;;;6.40;5.30;;;20.40;99.90;;;;;;5207229;28;20466;-47
2022/05/24 07:12:40;;;;;;;4.30;3.37;;;21.00;99.90;;;;;;5201128;28;20509;-47
2022/05/24 07:15:11;;;;;;;4.13;2.97;;;21.40;99.90;;;;;;5203172;28;20925;-47
2022/05/24 07:17:42;;;;;;;5.23;3.80;;;21.20;99.90;;;;;;5196846;28;20190;-48
2022/05/24 07:20:12;;;;;;;3.77;3.40;;;22.10;99.90;;;;;;5202000;28;20536;-46
2022/05/24 07:22:43;;;;;;;6.80;3.93;;;24.70;99.10;;;;;;5201602;28;20183;-46
2022/05/24 07:25:15;;;;;;;7.33;3.30;;;27.40;74.30;;;;;;5198353;28;20231;-51
2022/05/24 07:27:46;;;;;;;2.70;2.60;;;27.40;58.20;;;;;;5204764;28;20214;-47
2022/05/24 07:30:17;;;;;;;2.50;2.30;;;26.80;58.60;;;;;;5201931;28;20442;-46
2022/05/24 07:32:47;;;;;;;6.40;2.70;;;25.80;60.00;;;;;;5203894;28;20184;-48
2022/05/24 07:35:18;;;;;;;3.57;2.07;;;24.90;62.20;;;;;;5198711;28;20645;-47
2022/05/24 07:37:48;;;;;;;2.30;2.20;;;24.70;61.20;;;;;;5203490;28;20217;-49
2022/05/24 07:46:04;;;;;;;2.30;2.20;;;22.10;68.10;;;;;;5198186;28;20476;-47
2022/05/24 07:48:35;;;;;;;2.13;2.03;;;21.50;73.30;;;;;;5202519;28;20434;-47
2022/05/24 07:51:06;;;;;;;2.30;2.10;;;21.20;76.90;;;;;;5194703;28;20441;-47
2022/05/24 07:53:37;;;;;;;2.27;2.17;;;21.00;81.70;;;;;;5201101;28;20186;-47
2022/05/24 07:56:08;;;;;;;3.40;2.30;;;20.80;85.10;;;;;;5213860;28;20463;-47
2022/05/24 07:58:38;;;;;;;2.07;1.97;;;20.70;87.60;;;;;;5203282;28;20199;-46
2022/05/24 08:01:10;;;;;;;2.83;2.33;;;20.50;90.10;;;;;;5203012;28;20270;-47
2022/05/24 08:03:42;;;;;;;2.30;2.20;;;20.20;92.00;;;;;;5181973;28;20255;-48
2022/05/24 08:06:15;;;;;;;2.70;2.47;;;20.10;93.40;;;;;;5211199;28;20508;-47
2022/05/24 08:08:45;;;;;;;2.33;2.23;;;19.80;93.30;;;;;;5204263;28;20437;-47
2022/05/24 08:11:16;;;;;;;2.20;2.10;;;19.70;95.40;;;;;;5213602;28;20823;-46
2022/05/24 08:13:46;;;;;;;5.23;3.00;;;19.80;96.60;;;;;;5210391;28;20187;-48
2022/05/24 08:16:17;;;;;;;2.43;2.23;;;20.70;96.40;;;;;;5206637;28;20207;-47
2022/05/24 08:18:48;;;;;;;2.10;2.00;;;22.30;87.90;;;;;;5192834;28;20182;-47
2022/05/24 08:21:18;;;;;;;1.80;1.80;;;23.10;80.40;;;;;;5210221;28;20192;-46
2022/05/24 08:23:49;;;;;;;1.60;1.53;;;22.90;76.30;;;;;;5206694;28;20176;-47
2022/05/24 08:26:20;;;;;;;3.40;2.63;;;22.40;77.00;;;;;;5202766;28;20269;-46
2022/05/24 08:28:51;;;;;;;5.60;3.23;;;21.80;78.70;;;;;;5195139;28;20175;-46
2022/05/24 08:31:21;;;;;;;4.50;4.10;;;21.10;81.60;;;;;;5205209;28;20438;-47
2022/05/24 08:33:52;;;;;;;2.13;2.03;;;20.50;86.60;;;;;;5205530;28;20934;-47
2022/05/24 08:36:22;;;;;;;3.30;3.10;;;19.90;89.50;;;;;;5202087;28;20679;-49
2022/05/24 08:38:53;;;;;;;2.20;2.17;;;19.50;91.70;;;;;;5202730;28;20738;-46
2022/05/24 08:41:40;;;;;;;4.10;1.80;;;19.20;94.60;;;;;;5204025;28;20608;-46
2022/05/24 08:50:11;;;;;;;4.73;3.97;;;18.70;99.90;;;;;;5207580;28;20449;-46
2022/05/24 08:52:50;;;;;;;9.93;2.40;;;18.70;99.90;;;;;;5205469;28;20927;-49
2022/05/24 08:55:20;;;;;;;1.80;1.70;;;18.70;99.90;;;;;;5201813;28;20461;-47
2022/05/24 08:57:54;;;;;;;1.23;1.23;;;18.90;99.90;;;;;;5204704;28;20493;-46
2022/05/24 09:00:32;;;;;;;5.13;1.90;;;19.40;99.90;;;;;;5204339;28;20179;-45
2022/05/24 09:03:05;;;;;;;1.47;1.40;;;20.00;96.90;;;;;;5199003;28;20835;-47
2022/05/24 09:05:47;;;;;;;1.90;1.90;;;20.90;93.20;;;;;;5197241;28;20469;-46
2022/05/24 09:08:29;;;;;;;2.07;2.00;;;21.80;89.00;;;;;;5198564;28;20846;-46
2022/05/24 09:11:09;;;;;;;6.73;4.00;;;22.60;76.90;;;;;;5200963;28;20435;-47
2022/05/24 09:14:09;;;;;;;1.47;1.47;;;23.10;71.40;;;;;;5204378;28;20549;-47
2022/05/24 09:16:49;;;;;;;1.57;1.47;;;23.30;66.10;;;;;;5206681;28;20964;-47
2022/05/24 09:19:35;;;;;;;2.20;1.40;;;23.40;63.60;;;;;;5192583;28;20438;-47
2022/05/24 09:22:10;;;;;;;1.30;1.30;;;23.40;62.00;;;;;;5213940;28;20469;-48
2022/05/24 09:24:52;;;;;;;4.73;1.80;;;23.70;60.70;;;;;;5199361;28;20850;-47
2022/05/24 09:27:28;;;;;;;7.50;1.50;;;23.80;58.30;;;;;;5195865;28;20471;-46
2022/05/24 09:30:02;;;;;;;2.43;1.40;;;23.60;58.10;;;;;;5197072;28;20536;-46
2022/05/24 09:32:43;;;;;;;1.40;1.30;;;23.60;58.30;;;;;;5216730;28;20438;-47
2022/05/24 09:35:16;;;;;;;7.33;4.23;;;23.30;58.10;;;;;;5201752;28;20747;-47
2022/05/24 09:38:14;;;;;;;1.80;1.70;;;23.10;59.30;;;;;;5199302;28;20484;-47
2022/05/24 09:40:53;;;;;;;1.43;1.33;;;23.10;60.40;;;;;;5206635;28;20434;-47
2022/05/24 09:43:29;;;;;;;3.67;1.37;;;23.10;60.70;;;;;;5200020;28;20513;-47
2022/05/24 09:46:08;;;;;;;1.13;1.00;;;23.30;59.90;;;;;;5212464;28;20468;-48
2022/05/24 09:48:53;;;;;;;1.10;1.00;;;23.50;59.20;;;;;;5205342;28;20438;-48
2022/05/24 09:51:42;;;;;;;1.37;1.27;;;23.80;57.30;;;;;;5202323;28;20441;-46
2022/05/24 09:54:16;;;;;;;0.90;0.90;;;23.80;55.40;;;;;;5201061;28;20434;-46
2022/05/24 09:57:07;;;;;;;0.90;0.90;;;23.60;55.60;;;;;;5203977;28;20983;-47
2022/05/24 09:59:40;;;;;;;1.10;1.10;;;23.30;56.20;;;;;;5195484;28;22076;-47
2022/05/24 10:02:32;;;;;;;1.87;1.10;;;23.40;57.20;;;;;;5196017;28;20522;-50
2022/05/24 10:05:17;;;;;;;2.43;2.23;;;23.70;57.00;;;;;;5198238;28;20463;-47
2022/05/24 10:08:13;;;;;;;0.73;0.73;;;23.70;55.80;;;;;;5193984;28;20431;-47
2022/05/24 10:10:48;;;;;;;1.00;0.90;;;23.80;56.00;;;;;;5194984;28;20431;-48
2022/05/24 10:13:45;;;;;;;1.30;1.30;;;24.10;55.40;;;;;;5211655;28;20816;-48
2022/05/24 10:16:22;;;;;;;1.80;1.70;;;24.10;55.20;;;;;;5192177;28;20485;-46
2022/05/24 10:19:05;;;;;;;2.50;2.30;;;24.30;54.40;;;;;;5198630;28;20906;-47
2022/05/24 10:21:38;;;;;;;2.60;1.90;;;24.80;54.00;;;;;;5197654;28;20476;-46
2022/05/24 10:24:33;;;;;;;4.73;1.40;;;24.70;51.80;;;;;;5199319;28;20434;-49
2022/05/24 10:27:17;;;;;;;7.43;1.20;;;24.40;53.40;;;;;;5201489;28;20473;-47
2022/05/24 10:29:56;;;;;;;1.80;1.00;;;24.30;53.20;;;;;;5204404;28;20442;-46
2022/05/24 10:39:07;;;;;;;0.80;0.80;;;22.80;54.70;;;;;;5202025;28;20430;-47
2022/05/24 10:41:52;;;;;;;1.20;1.20;;;22.70;55.70;;;;;;5204661;28;20445;-47
2022/05/24 10:44:52;;;;;;;1.17;1.17;;;22.90;55.80;;;;;;5206520;28;20529;-47
2022/05/24 10:47:45;;;;;;;3.40;1.30;;;23.10;55.90;;;;;;5219528;28;20494;-47
2022/05/24 10:50:20;;;;;;;1.80;1.70;;;23.20;55.50;;;;;;5204400;28;20571;-46
2022/05/24 10:52:57;;;;;;;5.60;1.73;;;23.50;54.70;;;;;;5216236;28;20993;-45
2022/05/24 10:55:36;;;;;;;2.27;1.50;;;23.80;53.90;;;;;;5201530;28;20806;-47
2022/05/24 10:58:16;;;;;;;2.50;2.13;;;23.90;54.00;;;;;;5204200;28;20593;-50
2022/05/24 11:00:48;;;;;;;1.60;1.50;;;24.10;53.20;;;;;;5199436;28;20755;-47
2022/05/24 11:03:24;;;;;;;2.57;1.33;;;24.50;52.90;;;;;;5205454;28;20445;-47
2022/05/24 11:06:03;;;;;;;10.63;1.40;;;24.70;53.00;;;;;;5202683;28;20473;-46
2022/05/24 11:08:36;;;;;;;4.00;3.13;;;24.70;51.90;;;;;;5203130;28;20935;-46
2022/05/24 11:11:24;;;;;;;2.47;1.57;;;24.30;51.80;;;;;;5204097;28;20433;-48
2022/05/24 11:14:24;;;;;;;2.10;1.87;;;24.00;51.40;;;;;;5202523;28;20422;-49
2022/05/24 11:16:56;;;;;;;15.03;8.20;;;23.90;51.90;;;;;;5205319;28;20422;-47
2022/05/24 11:19:36;;;;;;;5.77;4.30;;;23.20;51.30;;;;;;5199753;28;20471;-47
2022/05/24 11:22:38;;;;;;;1.37;1.27;;;23.30;53.40;;;;;;5193444;28;20952;-47
2022/05/24 11:25:25;;;;;;;2.50;1.63;;;23.60;53.20;;;;;;5200977;28;20552;-48
2022/05/24 11:28:03;;;;;;;2.47;2.07;;;24.00;52.10;;;;;;5191112;28;20466;-48
2022/05/24 11:30:38;;;;;;;3.70;1.93;;;24.20;51.60;;;;;;5201540;28;20430;-47
2022/05/24 11:33:13;;;;;;;3.80;1.60;;;24.20;51.10;;;;;;5197533;28;20430;-46
2022/05/24 11:35:50;;;;;;;1.23;1.00;;;24.10;50.60;;;;;;5214832;23;20492;-53
2022/05/24 11:38:21;;;;;;;8.70;0.80;;;24.30;51.00;;;;;;5218580;28;20436;-52
2022/05/24 11:40:54;;;;;;;0.87;0.87;;;24.60;50.60;;;;;;5225293;28;20790;-52
2022/05/24 11:43:43;;;;;;;1.60;1.50;;;24.70;49.80;;;;;;5226091;28;20533;-53
2022/05/24 11:46:45;;;;;;;9.83;8.83;;;24.60;50.00;;;;;;5212191;28;20478;-54
2022/05/24 11:49:19;;;;;;;26.50;16.03;;;24.50;49.00;;;;;;5196866;28;20441;-51
2022/05/24 11:51:57;;;;;;;14.70;10.03;;;24.50;49.50;;;;;;5201676;28;20438;-53
2022/05/24 11:54:28;;;;;;;3.90;2.80;;;24.40;49.20;;;;;;5203793;28;20438;-51
2022/05/24 11:57:01;;;;;;;5.50;2.53;;;24.50;49.50;;;;;;5199473;28;20480;-52
2022/05/24 11:59:46;;;;;;;1.50;1.40;;;24.60;49.80;;;;;;5201234;28;20192;-52
2022/05/24 12:02:26;;;;;;;1.80;1.70;;;24.70;49.70;;;;;;5197440;28;20552;-53
2022/05/24 12:07:56;;;;;;;1.27;1.27;;;24.90;49.60;;;;;;5203276;28;20883;-52
2022/05/24 12:10:39;;;;;;;1.87;1.80;;;24.80;48.90;;;;;;5201692;28;20426;-53
2022/05/24 12:13:15;;;;;;;2.33;2.13;;;24.90;49.30;;;;;;5207216;28;20898;-52
2022/05/24 12:15:48;;;;;;;1.13;1.13;;;25.20;49.20;;;;;;5205840;28;20493;-52
2022/05/24 12:18:24;;;;;;;1.40;1.40;;;25.40;48.50;;;;;;5203830;28;20533;-53
2022/05/24 12:20:57;;;;;;;5.80;1.27;;;25.30;49.00;;;;;;5179113;28;21311;-53
2022/05/24 12:23:30;;;;;;;1.20;1.20;;;25.50;48.70;;;;;;5205135;28;20446;-50
2022/05/24 12:26:02;;;;;;;1.40;1.30;;;25.50;48.60;;;;;;5206198;28;20890;-52
2022/05/24 12:28:36;;;;;;;3.43;3.23;;;25.40;48.90;;;;;;5199327;28;20438;-52
2022/05/24 12:31:13;;;;;;;2.27;1.77;;;25.30;49.20;;;;;;5196094;28;20516;-52
2022/05/24 12:33:55;;;;;;;4.60;1.97;;;25.40;49.30;;;;;;5206458;28;20945;-51
2022/05/24 12:36:46;;;;;;;2.33;1.77;;;25.40;48.80;;;;;;5206497;28;20469;-51
2022/05/24 12:39:19;;;;;;;1.87;1.77;;;25.30;49.20;;;;;;5203857;28;20446;-51
2022/05/24 12:41:52;;;;;;;2.20;1.60;;;25.10;48.90;;;;;;5199496;28;20446;-53
2022/05/24 12:44:45;;;;;;;1.23;1.23;;;24.50;49.20;;;;;;5204673;28;20468;-51
2022/05/24 12:47:20;;;;;;;1.43;1.33;;;23.90;49.80;;;;;;5204916;28;20478;-52
2022/05/24 12:49:50;;;;;;;1.50;1.40;;;23.50;51.00;;;;;;5203824;28;20521;-52
2022/05/24 12:52:40;;;;;;;1.10;1.10;;;23.20;51.50;;;;;;5201570;28;20438;-51
2022/05/24 12:55:54;;;;;;;1.70;1.60;;;23.00;51.90;;;;;;5186409;28;20211;-52
2022/05/24 12:58:22;;;;;;;1.80;1.80;;;22.90;52.00;;;;;;5203914;28;21036;-51
2022/05/24 13:01:20;;;;;;;1.47;1.20;;;23.10;53.00;;;;;;5198169;28;20642;-51
2022/05/24 13:04:19;;;;;;;1.90;1.80;;;23.60;52.20;;;;;;5207585;28;20442;-51
2022/05/24 13:06:50;;;;;;;1.93;1.93;;;24.30;51.60;;;;;;5201896;28;20991;-53
2022/05/24 13:09:25;;;;;;;3.70;2.00;;;24.90;50.80;;;;;;5202342;28;20469;-51
2022/05/24 13:12:04;;;;;;;1.33;1.33;;;25.10;50.30;;;;;;5220292;28;20210;-52
2022/05/24 13:14:42;;;;;;;1.43;1.43;;;25.70;49.30;;;;;;5204949;28;20442;-52
2022/05/24 13:17:18;;;;;;;1.30;1.20;;;25.90;47.70;;;;;;5222876;28;20513;-52
2022/05/24 13:20:06;;;;;;;3.60;2.77;;;25.90;48.60;;;;;;5204573;28;20524;-53
2022/05/24 13:22:43;;;;;;;2.83;2.17;;;25.70;48.80;;;;;;5198765;28;20466;-50
2022/05/24 13:25:17;;;;;;;2.37;2.17;;;25.60;47.90;;;;;;5205753;28;20480;-53
2022/05/24 13:28:00;;;;;;;1.20;1.10;;;25.40;48.40;;;;;;5200124;28;20433;-51
2022/05/24 13:33:48;;;;;;;5.30;1.93;;;25.10;48.60;;;;;;5203282;28;20603;-51
2022/05/24 13:36:21;;;;;;;9.77;2.53;;;24.80;48.60;;;;;;5196096;28;20486;-51
2022/05/24 13:39:04;;;;;;;1.07;1.07;;;24.50;48.30;;;;;;5198751;28;20450;-50
2022/05/24 13:41:38;;;;;;;10.77;1.80;;;24.20;49.10;;;;;;5204027;28;20450;-52
2022/05/24 13:44:33;;;;;;;2.20;2.00;;;24.10;49.60;;;;;;5201903;28;20446;-51
2022/05/24 13:47:23;;;;;;;2.43;2.17;;;24.00;50.20;;;;;;5217439;28;20458;-52
2022/05/24 13:49:54;;;;;;;11.30;1.60;;;23.80;50.50;;;;;;5198313;28;20475;-50
2022/05/24 13:52:37;;;;;;;4.00;1.43;;;23.60;50.90;;;;;;5199821;28;20437;-53
2022/05/24 13:55:08;;;;;;;1.70;1.60;;;23.40;51.70;;;;;;5205357;28;20458;-51
2022/05/24 13:57:52;;;;;;;4.87;4.57;;;23.40;52.20;;;;;;5205244;28;20514;-52
2022/05/24 14:00:23;;;;;;;4.43;4.07;;;23.50;52.80;;;;;;5203598;28;20194;-51
2022/05/24 14:03:12;;;;;;;2.73;2.63;;;23.80;52.90;;;;;;5204276;28;20514;-52
2022/05/24 14:05:44;;;;;;;2.50;2.37;;;23.90;52.50;;;;;;5207175;28;20278;-53
2022/05/24 14:08:14;;;;;;;1.93;1.83;;;23.70;52.70;;;;;;5201184;28;20443;-53